sensor_id;sensor_type;location;lat;lon;timestamp;P1;durP1;ratioP1;P2;durP2;ratioP2
20179;SDS011;10249;48.900;9.090;2022-09-09T00:00:40;10.50;;;10.10;;
20179;SDS011;10249;48.900;9.090;2022-09-09T00:03:11;10.60;;;10.20;;
20179;SDS011;10249;48.900;9.090;2022-09-09T00:05:41;9.97;;;9.67;;
20179;SDS011;10249;48.900;9.090;2022-09-09T00:08:12;10.40;;;10.00;;
20179;SDS011;10249;48.900;9.090;2022-09-09T00:10:42;9.83;;;9.53;;
20179;SDS011;10249;48.900;9.090;2022-09-09T00:13:13;10.90;;;10.40;;
20179;SDS011;10249;48.900;9.090;2022-09-09T00:15:45;9.70;;;9.40;;
20179;SDS011;10249;48.900;9.090;2022-09-09T00:18:16;9.50;;;9.20;;
20179;SDS011;10249;48.900;9.090;2022-09-09T00:20:46;9.70;;;9.40;;
20179;SDS011;10249;48.900;9.090;2022-09-09T00:23:17;9.67;;;9.37;;
20179;SDS011;10249;48.900;9.090;2022-09-09T00:25:48;9.33;;;9.03;;
20179;SDS011;10249;48.900;9.090;2022-09-09T00:28:19;9.77;;;9.47;;
20179;SDS011;10249;48.900;9.090;2022-09-09T00:30:47;10.00;;;9.60;;
20179;SDS011;10249;48.900;9.090;2022-09-09T00:33:15;9.70;;;9.40;;
20179;SDS011;10249;48.900;9.090;2022-09-09T00:35:44;10.00;;;9.70;;
20179;SDS011;10249;48.900;9.090;2022-09-09T00:38:12;10.20;;;9.90;;
20179;SDS011;10249;48.900;9.090;2022-09-09T00:40:41;10.20;;;9.80;;
20179;SDS011;10249;48.900;9.090;2022-09-09T00:43:20;11.00;;;10.40;;
20179;SDS011;10249;48.900;9.090;2022-09-09T00:48:37;10.50;;;10.10;;
20179;SDS011;10249;48.900;9.090;2022-09-09T00:51:09;10.20;;;9.90;;
20179;SDS011;10249;48.900;9.090;2022-09-09T00:53:51;9.97;;;9.57;;
20179;SDS011;10249;48.900;9.090;2022-09-09T00:56:23;10.47;;;9.90;;
20179;SDS011;10249;48.900;9.090;2022-09-09T00:58:55;10.30;;;10.00;;
20179;SDS011;10249;48.900;9.090;2022-09-09T01:01:26;10.43;;;10.03;;
20179;SDS011;10249;48.900;9.090;2022-09-09T01:03:55;10.50;;;10.10;;
20179;SDS011;10249;48.900;9.090;2022-09-09T01:06:26;10.13;;;9.83;;
20179;SDS011;10249;48.900;9.090;2022-09-09T01:08:59;10.20;;;9.90;;
20179;SDS011;10249;48.900;9.090;2022-09-09T01:11:32;10.10;;;9.80;;
20179;SDS011;10249;48.900;9.090;2022-09-09T01:14:01;10.50;;;10.10;;
20179;SDS011;10249;48.900;9.090;2022-09-09T01:16:31;10.30;;;10.00;;
20179;SDS011;10249;48.900;9.090;2022-09-09T01:19:00;10.40;;;10.00;;
20179;SDS011;10249;48.900;9.090;2022-09-09T01:21:31;10.50;;;10.10;;
20179;SDS011;10249;48.900;9.090;2022-09-09T01:24:04;10.73;;;9.97;;
20179;SDS011;10249;48.900;9.090;2022-09-09T01:26:33;9.87;;;9.57;;
20179;SDS011;10249;48.900;9.090;2022-09-09T01:29:01;10.47;;;10.07;;
20179;SDS011;10249;48.900;9.090;2022-09-09T01:31:29;10.23;;;9.73;;
20179;SDS011;10249;48.900;9.090;2022-09-09T01:33:58;9.80;;;9.50;;
20179;SDS011;10249;48.900;9.090;2022-09-09T01:36:27;10.50;;;10.10;;
20179;SDS011;10249;48.900;9.090;2022-09-09T01:38:56;10.30;;;10.00;;
20179;SDS011;10249;48.900;9.090;2022-09-09T01:41:23;10.03;;;9.73;;
20179;SDS011;10249;48.900;9.090;2022-09-09T01:43:52;10.30;;;10.00;;
20179;SDS011;10249;48.900;9.090;2022-09-09T01:46:20;10.00;;;9.70;;
20179;SDS011;10249;48.900;9.090;2022-09-09T01:48:48;10.20;;;9.90;;
20179;SDS011;10249;48.900;9.090;2022-09-09T01:51:15;10.00;;;9.70;;
20179;SDS011;10249;48.900;9.090;2022-09-09T01:53:42;10.10;;;9.80;;
20179;SDS011;10249;48.900;9.090;2022-09-09T01:56:12;10.63;;;10.23;;
20179;SDS011;10249;48.900;9.090;2022-09-09T01:58:45;10.00;;;9.70;;
20179;SDS011;10249;48.900;9.090;2022-09-09T02:01:17;9.97;;;9.67;;
20179;SDS011;10249;48.900;9.090;2022-09-09T02:03:51;10.40;;;9.80;;
20179;SDS011;10249;48.900;9.090;2022-09-09T02:06:23;9.77;;;9.47;;
20179;SDS011;10249;48.900;9.090;2022-09-09T02:08:52;9.67;;;9.37;;
20179;SDS011;10249;48.900;9.090;2022-09-09T02:11:20;9.57;;;9.27;;
20179;SDS011;10249;48.900;9.090;2022-09-09T02:13:49;9.90;;;9.60;;
20179;SDS011;10249;48.900;9.090;2022-09-09T02:16:21;10.00;;;9.70;;
20179;SDS011;10249;48.900;9.090;2022-09-09T02:18:50;10.07;;;9.77;;
20179;SDS011;10249;48.900;9.090;2022-09-09T02:21:18;10.03;;;9.73;;
20179;SDS011;10249;48.900;9.090;2022-09-09T02:23:46;9.40;;;9.10;;
20179;SDS011;10249;48.900;9.090;2022-09-09T02:26:17;9.60;;;9.30;;
20179;SDS011;10249;48.900;9.090;2022-09-09T02:28:46;9.10;;;8.80;;
20179;SDS011;10249;48.900;9.090;2022-09-09T02:31:15;9.23;;;8.93;;
20179;SDS011;10249;48.900;9.090;2022-09-09T02:33:47;9.10;;;8.60;;
20179;SDS011;10249;48.900;9.090;2022-09-09T02:36:17;9.20;;;8.90;;
20179;SDS011;10249;48.900;9.090;2022-09-09T02:38:46;9.23;;;8.93;;
20179;SDS011;10249;48.900;9.090;2022-09-09T02:41:18;8.87;;;8.57;;
20179;SDS011;10249;48.900;9.090;2022-09-09T02:43:46;8.83;;;8.53;;
20179;SDS011;10249;48.900;9.090;2022-09-09T02:46:18;9.10;;;8.80;;
20179;SDS011;10249;48.900;9.090;2022-09-09T02:48:52;9.37;;;9.07;;
20179;SDS011;10249;48.900;9.090;2022-09-09T02:51:23;8.83;;;8.53;;
20179;SDS011;10249;48.900;9.090;2022-09-09T02:53:52;8.90;;;8.60;;
20179;SDS011;10249;48.900;9.090;2022-09-09T02:56:25;9.10;;;8.80;;
20179;SDS011;10249;48.900;9.090;2022-09-09T02:58:54;9.10;;;8.80;;
20179;SDS011;10249;48.900;9.090;2022-09-09T03:01:21;9.00;;;8.70;;
20179;SDS011;10249;48.900;9.090;2022-09-09T03:03:48;9.23;;;8.93;;
20179;SDS011;10249;48.900;9.090;2022-09-09T03:06:17;9.10;;;8.80;;
20179;SDS011;10249;48.900;9.090;2022-09-09T03:08:44;8.90;;;8.60;;
20179;SDS011;10249;48.900;9.090;2022-09-09T03:11:11;8.30;;;8.00;;
20179;SDS011;10249;48.900;9.090;2022-09-09T03:13:39;8.40;;;8.10;;
20179;SDS011;10249;48.900;9.090;2022-09-09T03:16:06;8.70;;;8.40;;
20179;SDS011;10249;48.900;9.090;2022-09-09T03:18:33;8.47;;;8.17;;
20179;SDS011;10249;48.900;9.090;2022-09-09T03:21:00;8.00;;;7.77;;
20179;SDS011;10249;48.900;9.090;2022-09-09T03:23:29;8.00;;;7.80;;
20179;SDS011;10249;48.900;9.090;2022-09-09T03:25:56;8.47;;;8.10;;
20179;SDS011;10249;48.900;9.090;2022-09-09T03:28:23;9.03;;;8.73;;
20179;SDS011;10249;48.900;9.090;2022-09-09T03:30:57;8.30;;;8.00;;
20179;SDS011;10249;48.900;9.090;2022-09-09T03:33:24;8.40;;;8.10;;
20179;SDS011;10249;48.900;9.090;2022-09-09T03:35:51;8.13;;;7.83;;
20179;SDS011;10249;48.900;9.090;2022-09-09T03:38:21;8.67;;;8.27;;
20179;SDS011;10249;48.900;9.090;2022-09-09T03:40:50;8.50;;;8.10;;
20179;SDS011;10249;48.900;9.090;2022-09-09T03:43:20;8.07;;;7.67;;
20179;SDS011;10249;48.900;9.090;2022-09-09T03:45:47;8.00;;;7.80;;
20179;SDS011;10249;48.900;9.090;2022-09-09T03:48:14;8.07;;;7.77;;
20179;SDS011;10249;48.900;9.090;2022-09-09T03:50:43;7.97;;;7.77;;
20179;SDS011;10249;48.900;9.090;2022-09-09T03:53:10;7.83;;;7.63;;
20179;SDS011;10249;48.900;9.090;2022-09-09T03:55:37;10.30;;;9.80;;
20179;SDS011;10249;48.900;9.090;2022-09-09T03:58:07;8.50;;;8.20;;
20179;SDS011;10249;48.900;9.090;2022-09-09T04:00:35;8.90;;;8.60;;
20179;SDS011;10249;48.900;9.090;2022-09-09T04:03:09;8.80;;;8.50;;
20179;SDS011;10249;48.900;9.090;2022-09-09T04:05:37;8.60;;;8.30;;
20179;SDS011;10249;48.900;9.090;2022-09-09T04:08:07;8.60;;;8.30;;
20179;SDS011;10249;48.900;9.090;2022-09-09T04:10:34;8.73;;;8.43;;
20179;SDS011;10249;48.900;9.090;2022-09-09T04:13:02;9.33;;;9.03;;
20179;SDS011;10249;48.900;9.090;2022-09-09T04:15:30;8.70;;;8.40;;
20179;SDS011;10249;48.900;9.090;2022-09-09T04:18:00;9.20;;;8.90;;
20179;SDS011;10249;48.900;9.090;2022-09-09T04:20:27;8.73;;;8.43;;
20179;SDS011;10249;48.900;9.090;2022-09-09T04:22:55;8.90;;;8.60;;
20179;SDS011;10249;48.900;9.090;2022-09-09T04:25:22;9.17;;;8.87;;
20179;SDS011;10249;48.900;9.090;2022-09-09T04:27:52;9.37;;;9.07;;
20179;SDS011;10249;48.900;9.090;2022-09-09T04:30:20;9.60;;;9.30;;
20179;SDS011;10249;48.900;9.090;2022-09-09T04:32:48;9.50;;;9.20;;
20179;SDS011;10249;48.900;9.090;2022-09-09T04:35:15;9.80;;;9.40;;
20179;SDS011;10249;48.900;9.090;2022-09-09T04:37:43;10.27;;;9.77;;
20179;SDS011;10249;48.900;9.090;2022-09-09T04:40:10;10.30;;;9.87;;
20179;SDS011;10249;48.900;9.090;2022-09-09T04:42:37;10.10;;;9.70;;
20179;SDS011;10249;48.900;9.090;2022-09-09T04:45:09;9.77;;;9.47;;
20179;SDS011;10249;48.900;9.090;2022-09-09T04:47:37;9.60;;;9.30;;
20179;SDS011;10249;48.900;9.090;2022-09-09T04:50:06;9.83;;;9.50;;
20179;SDS011;10249;48.900;9.090;2022-09-09T04:52:34;9.57;;;9.27;;
20179;SDS011;10249;48.900;9.090;2022-09-09T04:55:02;9.43;;;9.13;;
20179;SDS011;10249;48.900;9.090;2022-09-09T04:57:29;10.87;;;10.47;;
20179;SDS011;10249;48.900;9.090;2022-09-09T04:59:58;10.00;;;9.60;;
20179;SDS011;10249;48.900;9.090;2022-09-09T05:02:25;9.93;;;9.60;;
20179;SDS011;10249;48.900;9.090;2022-09-09T05:04:52;10.30;;;9.90;;
20179;SDS011;10249;48.900;9.090;2022-09-09T05:07:21;10.27;;;9.83;;
20179;SDS011;10249;48.900;9.090;2022-09-09T05:09:48;10.20;;;9.80;;
20179;SDS011;10249;48.900;9.090;2022-09-09T05:12:15;10.10;;;9.80;;
20179;SDS011;10249;48.900;9.090;2022-09-09T05:14:42;9.67;;;9.37;;
20179;SDS011;10249;48.900;9.090;2022-09-09T05:17:09;10.37;;;9.90;;
20179;SDS011;10249;48.900;9.090;2022-09-09T05:19:37;9.70;;;9.40;;
20179;SDS011;10249;48.900;9.090;2022-09-09T05:22:04;10.20;;;9.80;;
20179;SDS011;10249;48.900;9.090;2022-09-09T05:24:33;9.97;;;9.57;;
20179;SDS011;10249;48.900;9.090;2022-09-09T05:27:02;10.40;;;10.00;;
20179;SDS011;10249;48.900;9.090;2022-09-09T05:29:30;9.90;;;9.57;;
20179;SDS011;10249;48.900;9.090;2022-09-09T05:31:58;10.20;;;9.80;;
20179;SDS011;10249;48.900;9.090;2022-09-09T05:34:25;10.00;;;9.70;;
20179;SDS011;10249;48.900;9.090;2022-09-09T05:36:52;10.50;;;10.10;;
20179;SDS011;10249;48.900;9.090;2022-09-09T05:39:19;10.27;;;9.87;;
20179;SDS011;10249;48.900;9.090;2022-09-09T05:41:47;11.07;;;10.13;;
20179;SDS011;10249;48.900;9.090;2022-09-09T05:44:16;10.30;;;9.90;;
20179;SDS011;10249;48.900;9.090;2022-09-09T05:46:44;10.30;;;9.90;;
20179;SDS011;10249;48.900;9.090;2022-09-09T05:49:11;10.23;;;9.83;;
20179;SDS011;10249;48.900;9.090;2022-09-09T05:51:40;10.50;;;10.10;;
20179;SDS011;10249;48.900;9.090;2022-09-09T05:54:07;10.10;;;9.77;;
20179;SDS011;10249;48.900;9.090;2022-09-09T05:56:35;9.90;;;9.60;;
20179;SDS011;10249;48.900;9.090;2022-09-09T05:59:03;10.20;;;9.80;;
20179;SDS011;10249;48.900;9.090;2022-09-09T06:01:31;10.30;;;9.90;;
20179;SDS011;10249;48.900;9.090;2022-09-09T06:03:59;10.00;;;9.70;;
20179;SDS011;10249;48.900;9.090;2022-09-09T06:06:27;9.93;;;9.63;;
20179;SDS011;10249;48.900;9.090;2022-09-09T06:08:55;10.30;;;9.90;;
20179;SDS011;10249;48.900;9.090;2022-09-09T06:11:23;10.13;;;9.77;;
20179;SDS011;10249;48.900;9.090;2022-09-09T06:13:51;10.30;;;9.90;;
20179;SDS011;10249;48.900;9.090;2022-09-09T06:16:21;10.37;;;9.97;;
20179;SDS011;10249;48.900;9.090;2022-09-09T06:18:49;10.33;;;9.93;;
20179;SDS011;10249;48.900;9.090;2022-09-09T06:21:16;10.43;;;10.03;;
20179;SDS011;10249;48.900;9.090;2022-09-09T06:23:44;10.80;;;10.40;;
20179;SDS011;10249;48.900;9.090;2022-09-09T06:26:12;10.27;;;9.87;;
20179;SDS011;10249;48.900;9.090;2022-09-09T06:28:40;10.60;;;10.20;;
20179;SDS011;10249;48.900;9.090;2022-09-09T06:31:08;10.50;;;10.10;;
20179;SDS011;10249;48.900;9.090;2022-09-09T06:33:37;10.60;;;10.20;;
20179;SDS011;10249;48.900;9.090;2022-09-09T06:36:06;10.37;;;9.97;;
20179;SDS011;10249;48.900;9.090;2022-09-09T06:38:33;10.67;;;10.27;;
20179;SDS011;10249;48.900;9.090;2022-09-09T06:41:00;10.70;;;10.30;;
20179;SDS011;10249;48.900;9.090;2022-09-09T06:43:28;9.90;;;9.60;;
20179;SDS011;10249;48.900;9.090;2022-09-09T06:45:55;10.37;;;9.97;;
20179;SDS011;10249;48.900;9.090;2022-09-09T06:48:23;10.53;;;10.13;;
20179;SDS011;10249;48.900;9.090;2022-09-09T06:50:52;11.83;;;11.33;;
20179;SDS011;10249;48.900;9.090;2022-09-09T06:53:26;10.47;;;10.07;;
20179;SDS011;10249;48.900;9.090;2022-09-09T06:55:53;11.50;;;11.03;;
20179;SDS011;10249;48.900;9.090;2022-09-09T06:58:20;11.20;;;10.80;;
20179;SDS011;10249;48.900;9.090;2022-09-09T07:00:48;11.67;;;11.07;;
20179;SDS011;10249;48.900;9.090;2022-09-09T07:03:15;11.60;;;11.10;;
20179;SDS011;10249;48.900;9.090;2022-09-09T07:05:42;11.50;;;11.10;;
20179;SDS011;10249;48.900;9.090;2022-09-09T07:08:11;11.20;;;10.80;;
20179;SDS011;10249;48.900;9.090;2022-09-09T07:10:39;11.40;;;11.00;;
20179;SDS011;10249;48.900;9.090;2022-09-09T07:13:06;11.70;;;11.30;;
20179;SDS011;10249;48.900;9.090;2022-09-09T07:15:34;12.27;;;11.77;;
20179;SDS011;10249;48.900;9.090;2022-09-09T07:18:02;11.77;;;11.37;;
20179;SDS011;10249;48.900;9.090;2022-09-09T07:20:30;11.57;;;11.17;;
20179;SDS011;10249;48.900;9.090;2022-09-09T07:22:57;12.60;;;12.00;;
20179;SDS011;10249;48.900;9.090;2022-09-09T07:25:25;12.00;;;11.50;;
20179;SDS011;10249;48.900;9.090;2022-09-09T07:27:54;12.93;;;12.33;;
20179;SDS011;10249;48.900;9.090;2022-09-09T07:30:22;12.07;;;11.57;;
20179;SDS011;10249;48.900;9.090;2022-09-09T07:32:50;12.47;;;11.87;;
20179;SDS011;10249;48.900;9.090;2022-09-09T07:35:17;12.13;;;11.63;;
20179;SDS011;10249;48.900;9.090;2022-09-09T07:37:45;12.30;;;11.80;;
20179;SDS011;10249;48.900;9.090;2022-09-09T07:40:12;12.60;;;12.00;;
20179;SDS011;10249;48.900;9.090;2022-09-09T07:42:41;12.37;;;11.87;;
20179;SDS011;10249;48.900;9.090;2022-09-09T07:45:08;12.10;;;11.60;;
20179;SDS011;10249;48.900;9.090;2022-09-09T07:47:35;12.27;;;11.77;;
20179;SDS011;10249;48.900;9.090;2022-09-09T07:50:02;13.00;;;12.30;;
20179;SDS011;10249;48.900;9.090;2022-09-09T07:52:29;12.37;;;11.87;;
20179;SDS011;10249;48.900;9.090;2022-09-09T07:54:56;12.30;;;11.80;;
20179;SDS011;10249;48.900;9.090;2022-09-09T07:57:23;13.40;;;12.73;;
20179;SDS011;10249;48.900;9.090;2022-09-09T07:59:52;12.50;;;12.00;;
20179;SDS011;10249;48.900;9.090;2022-09-09T08:02:19;13.77;;;12.77;;
20179;SDS011;10249;48.900;9.090;2022-09-09T08:04:46;13.40;;;12.90;;
20179;SDS011;10249;48.900;9.090;2022-09-09T08:07:13;13.97;;;13.37;;
20179;SDS011;10249;48.900;9.090;2022-09-09T08:09:41;13.90;;;13.30;;
20179;SDS011;10249;48.900;9.090;2022-09-09T08:12:09;14.57;;;13.43;;
20179;SDS011;10249;48.900;9.090;2022-09-09T08:14:38;15.07;;;14.37;;
20179;SDS011;10249;48.900;9.090;2022-09-09T08:17:07;13.80;;;13.10;;
20179;SDS011;10249;48.900;9.090;2022-09-09T08:19:34;13.77;;;13.03;;
20179;SDS011;10249;48.900;9.090;2022-09-09T08:22:01;15.17;;;14.10;;
20179;SDS011;10249;48.900;9.090;2022-09-09T08:24:28;14.73;;;13.87;;
20179;SDS011;10249;48.900;9.090;2022-09-09T08:26:55;14.20;;;13.50;;
20179;SDS011;10249;48.900;9.090;2022-09-09T08:29:22;14.60;;;13.80;;
20179;SDS011;10249;48.900;9.090;2022-09-09T08:31:50;14.10;;;13.40;;
20179;SDS011;10249;48.900;9.090;2022-09-09T08:34:19;14.80;;;14.10;;
20179;SDS011;10249;48.900;9.090;2022-09-09T08:36:46;14.00;;;13.40;;
20179;SDS011;10249;48.900;9.090;2022-09-09T08:39:15;14.30;;;13.70;;
20179;SDS011;10249;48.900;9.090;2022-09-09T08:41:55;14.60;;;13.90;;
20179;SDS011;10249;48.900;9.090;2022-09-09T08:44:28;14.30;;;13.70;;
20179;SDS011;10249;48.900;9.090;2022-09-09T08:47:00;14.93;;;14.03;;
20179;SDS011;10249;48.900;9.090;2022-09-09T08:49:46;14.40;;;13.80;;
20179;SDS011;10249;48.900;9.090;2022-09-09T08:52:16;14.10;;;13.50;;
20179;SDS011;10249;48.900;9.090;2022-09-09T08:54:44;14.60;;;14.00;;
20179;SDS011;10249;48.900;9.090;2022-09-09T08:57:12;15.23;;;14.33;;
20179;SDS011;10249;48.900;9.090;2022-09-09T08:59:41;14.97;;;14.27;;
20179;SDS011;10249;48.900;9.090;2022-09-09T09:02:08;15.67;;;14.80;;
20179;SDS011;10249;48.900;9.090;2022-09-09T09:04:43;15.40;;;14.70;;
20179;SDS011;10249;48.900;9.090;2022-09-09T09:07:17;15.67;;;14.77;;
20179;SDS011;10249;48.900;9.090;2022-09-09T09:09:51;15.97;;;15.17;;
20179;SDS011;10249;48.900;9.090;2022-09-09T09:12:24;15.40;;;14.70;;
20179;SDS011;10249;48.900;9.090;2022-09-09T09:14:52;15.17;;;14.47;;
20179;SDS011;10249;48.900;9.090;2022-09-09T09:17:20;15.70;;;14.80;;
20179;SDS011;10249;48.900;9.090;2022-09-09T09:19:48;15.67;;;14.80;;
20179;SDS011;10249;48.900;9.090;2022-09-09T09:22:18;15.97;;;14.97;;
20179;SDS011;10249;48.900;9.090;2022-09-09T09:24:50;15.27;;;14.57;;
20179;SDS011;10249;48.900;9.090;2022-09-09T09:27:18;15.57;;;14.87;;
20179;SDS011;10249;48.900;9.090;2022-09-09T09:29:47;15.47;;;14.77;;
20179;SDS011;10249;48.900;9.090;2022-09-09T09:32:16;18.93;;;17.20;;
20179;SDS011;10249;48.900;9.090;2022-09-09T09:34:48;15.97;;;15.20;;
20179;SDS011;10249;48.900;9.090;2022-09-09T09:37:15;16.20;;;15.30;;
20179;SDS011;10249;48.900;9.090;2022-09-09T09:39:45;16.30;;;15.40;;
20179;SDS011;10249;48.900;9.090;2022-09-09T09:42:15;15.80;;;15.00;;
20179;SDS011;10249;48.900;9.090;2022-09-09T09:44:43;16.67;;;15.57;;
20179;SDS011;10249;48.900;9.090;2022-09-09T09:47:11;16.17;;;15.27;;
20179;SDS011;10249;48.900;9.090;2022-09-09T09:49:39;16.10;;;15.20;;
20179;SDS011;10249;48.900;9.090;2022-09-09T09:52:06;16.27;;;15.43;;
20179;SDS011;10249;48.900;9.090;2022-09-09T09:54:34;15.80;;;15.00;;
20179;SDS011;10249;48.900;9.090;2022-09-09T09:57:09;15.17;;;14.47;;
20179;SDS011;10249;48.900;9.090;2022-09-09T09:59:37;15.50;;;14.80;;
20179;SDS011;10249;48.900;9.090;2022-09-09T10:05:00;16.00;;;15.30;;
20179;SDS011;10249;48.900;9.090;2022-09-09T10:07:27;15.70;;;15.00;;
20179;SDS011;10249;48.900;9.090;2022-09-09T10:09:55;16.27;;;15.57;;
20179;SDS011;10249;48.900;9.090;2022-09-09T10:12:27;16.57;;;15.80;;
20179;SDS011;10249;48.900;9.090;2022-09-09T10:14:58;16.77;;;15.80;;
20179;SDS011;10249;48.900;9.090;2022-09-09T10:17:29;16.60;;;15.70;;
20179;SDS011;10249;48.900;9.090;2022-09-09T10:20:06;16.40;;;15.60;;
20179;SDS011;10249;48.900;9.090;2022-09-09T10:22:43;16.53;;;15.70;;
20179;SDS011;10249;48.900;9.090;2022-09-09T10:25:14;16.10;;;15.30;;
20179;SDS011;10249;48.900;9.090;2022-09-09T10:27:47;16.53;;;15.67;;
20179;SDS011;10249;48.900;9.090;2022-09-09T10:30:16;15.80;;;15.00;;
20179;SDS011;10249;48.900;9.090;2022-09-09T10:32:46;15.43;;;14.70;;
20179;SDS011;10249;48.900;9.090;2022-09-09T10:35:17;15.60;;;14.90;;
20179;SDS011;10249;48.900;9.090;2022-09-09T10:37:53;15.87;;;14.87;;
20179;SDS011;10249;48.900;9.090;2022-09-09T10:40:26;15.47;;;14.63;;
20179;SDS011;10249;48.900;9.090;2022-09-09T10:42:58;15.70;;;14.57;;
20179;SDS011;10249;48.900;9.090;2022-09-09T10:45:27;16.60;;;15.27;;
20179;SDS011;10249;48.900;9.090;2022-09-09T10:48:02;15.40;;;14.70;;
20179;SDS011;10249;48.900;9.090;2022-09-09T10:50:51;15.40;;;14.60;;
20179;SDS011;10249;48.900;9.090;2022-09-09T10:53:22;15.97;;;15.00;;
20179;SDS011;10249;48.900;9.090;2022-09-09T10:55:52;15.57;;;14.77;;
20179;SDS011;10249;48.900;9.090;2022-09-09T10:58:22;14.80;;;13.90;;
20179;SDS011;10249;48.900;9.090;2022-09-09T11:00:51;13.10;;;12.60;;
20179;SDS011;10249;48.900;9.090;2022-09-09T11:03:20;15.40;;;14.30;;
20179;SDS011;10249;48.900;9.090;2022-09-09T11:05:49;15.00;;;14.30;;
20179;SDS011;10249;48.900;9.090;2022-09-09T11:08:18;15.27;;;14.47;;
20179;SDS011;10249;48.900;9.090;2022-09-09T11:10:46;14.13;;;13.53;;
20179;SDS011;10249;48.900;9.090;2022-09-09T11:13:18;14.80;;;14.20;;
20179;SDS011;10249;48.900;9.090;2022-09-09T11:15:49;14.73;;;14.10;;
20179;SDS011;10249;48.900;9.090;2022-09-09T11:18:19;14.43;;;13.73;;
20179;SDS011;10249;48.900;9.090;2022-09-09T11:20:46;14.30;;;13.70;;
20179;SDS011;10249;48.900;9.090;2022-09-09T11:23:15;14.27;;;13.57;;
20179;SDS011;10249;48.900;9.090;2022-09-09T11:25:44;14.77;;;13.80;;
20179;SDS011;10249;48.900;9.090;2022-09-09T11:28:21;14.63;;;13.90;;
20179;SDS011;10249;48.900;9.090;2022-09-09T11:30:57;14.00;;;13.40;;
20179;SDS011;10249;48.900;9.090;2022-09-09T11:36:16;12.97;;;12.47;;
20179;SDS011;10249;48.900;9.090;2022-09-09T11:38:47;14.07;;;13.37;;
20179;SDS011;10249;48.900;9.090;2022-09-09T11:41:16;13.23;;;12.73;;
20179;SDS011;10249;48.900;9.090;2022-09-09T11:43:46;14.40;;;13.70;;
20179;SDS011;10249;48.900;9.090;2022-09-09T11:46:15;13.60;;;13.00;;
20179;SDS011;10249;48.900;9.090;2022-09-09T11:48:43;13.57;;;12.97;;
20179;SDS011;10249;48.900;9.090;2022-09-09T11:51:12;14.03;;;13.43;;
20179;SDS011;10249;48.900;9.090;2022-09-09T11:53:49;13.77;;;13.07;;
20179;SDS011;10249;48.900;9.090;2022-09-09T11:56:24;13.80;;;13.10;;
20179;SDS011;10249;48.900;9.090;2022-09-09T11:58:56;13.97;;;13.37;;
20179;SDS011;10249;48.900;9.090;2022-09-09T12:01:27;14.00;;;13.40;;
20179;SDS011;10249;48.900;9.090;2022-09-09T12:03:56;14.10;;;13.50;;
20179;SDS011;10249;48.900;9.090;2022-09-09T12:06:28;14.13;;;13.53;;
20179;SDS011;10249;48.900;9.090;2022-09-09T12:08:57;14.90;;;14.20;;
20179;SDS011;10249;48.900;9.090;2022-09-09T12:11:25;14.93;;;14.23;;
20179;SDS011;10249;48.900;9.090;2022-09-09T12:13:54;15.23;;;14.53;;
20179;SDS011;10249;48.900;9.090;2022-09-09T12:16:30;15.07;;;14.37;;
20179;SDS011;10249;48.900;9.090;2022-09-09T12:19:03;14.90;;;14.20;;
20179;SDS011;10249;48.900;9.090;2022-09-09T12:21:33;15.50;;;14.63;;
20179;SDS011;10249;48.900;9.090;2022-09-09T12:24:04;16.00;;;15.00;;
20179;SDS011;10249;48.900;9.090;2022-09-09T12:26:34;15.30;;;14.60;;
20179;SDS011;10249;48.900;9.090;2022-09-09T12:29:06;15.70;;;14.80;;
20179;SDS011;10249;48.900;9.090;2022-09-09T12:31:39;15.80;;;15.03;;
20179;SDS011;10249;48.900;9.090;2022-09-09T12:34:13;16.07;;;15.17;;
20179;SDS011;10249;48.900;9.090;2022-09-09T12:36:41;15.93;;;15.13;;
20179;SDS011;10249;48.900;9.090;2022-09-09T12:39:15;15.87;;;15.07;;
20179;SDS011;10249;48.900;9.090;2022-09-09T12:41:50;15.80;;;15.00;;
20179;SDS011;10249;48.900;9.090;2022-09-09T12:44:21;16.20;;;15.30;;
20179;SDS011;10249;48.900;9.090;2022-09-09T12:46:50;15.80;;;15.00;;
20179;SDS011;10249;48.900;9.090;2022-09-09T12:49:24;16.10;;;15.30;;
20179;SDS011;10249;48.900;9.090;2022-09-09T12:51:52;16.20;;;15.30;;
20179;SDS011;10249;48.900;9.090;2022-09-09T12:54:19;16.23;;;15.10;;
20179;SDS011;10249;48.900;9.090;2022-09-09T12:56:46;15.57;;;14.87;;
20179;SDS011;10249;48.900;9.090;2022-09-09T12:59:19;15.57;;;14.77;;
20179;SDS011;10249;48.900;9.090;2022-09-09T13:01:56;15.60;;;14.80;;
20179;SDS011;10249;48.900;9.090;2022-09-09T13:04:23;15.43;;;14.70;;
20179;SDS011;10249;48.900;9.090;2022-09-09T13:06:50;15.68;;;14.88;;
20179;SDS011;10249;48.900;9.090;2022-09-09T13:09:18;15.43;;;14.73;;
20179;SDS011;10249;48.900;9.090;2022-09-09T13:11:45;15.32;;;14.63;;
20179;SDS011;10249;48.900;9.090;2022-09-09T13:14:14;15.73;;;14.93;;
20179;SDS011;10249;48.900;9.090;2022-09-09T13:16:43;15.52;;;14.73;;
20179;SDS011;10249;48.900;9.090;2022-09-09T13:19:14;15.65;;;14.85;;
20179;SDS011;10249;48.900;9.090;2022-09-09T13:21:42;15.60;;;14.80;;
20179;SDS011;10249;48.900;9.090;2022-09-09T13:24:21;15.90;;;15.00;;
20179;SDS011;10249;48.900;9.090;2022-09-09T13:26:53;16.13;;;15.13;;
20179;SDS011;10249;48.900;9.090;2022-09-09T13:29:21;15.77;;;14.87;;
20179;SDS011;10249;48.900;9.090;2022-09-09T13:31:48;15.83;;;15.03;;
20179;SDS011;10249;48.900;9.090;2022-09-09T13:34:26;15.67;;;14.87;;
20179;SDS011;10249;48.900;9.090;2022-09-09T13:36:54;15.30;;;14.60;;
20179;SDS011;10249;48.900;9.090;2022-09-09T13:39:24;16.33;;;15.27;;
20179;SDS011;10249;48.900;9.090;2022-09-09T13:41:51;15.47;;;14.77;;
20179;SDS011;10249;48.900;9.090;2022-09-09T13:44:19;15.97;;;15.07;;
20179;SDS011;10249;48.900;9.090;2022-09-09T13:46:48;15.77;;;14.97;;
20179;SDS011;10249;48.900;9.090;2022-09-09T13:49:28;15.73;;;14.93;;
20179;SDS011;10249;48.900;9.090;2022-09-09T13:52:03;15.97;;;15.17;;
20179;SDS011;10249;48.900;9.090;2022-09-09T13:54:31;16.07;;;15.27;;
20179;SDS011;10249;48.900;9.090;2022-09-09T13:56:58;16.27;;;15.23;;
20179;SDS011;10249;48.900;9.090;2022-09-09T13:59:26;16.02;;;15.00;;
20179;SDS011;10249;48.900;9.090;2022-09-09T14:01:53;15.83;;;15.03;;
20179;SDS011;10249;48.900;9.090;2022-09-09T14:04:20;15.53;;;14.83;;
20179;SDS011;10249;48.900;9.090;2022-09-09T14:06:48;16.03;;;15.07;;
20179;SDS011;10249;48.900;9.090;2022-09-09T14:09:16;15.53;;;14.83;;
20179;SDS011;10249;48.900;9.090;2022-09-09T14:11:44;15.50;;;14.70;;
20179;SDS011;10249;48.900;9.090;2022-09-09T14:14:11;15.60;;;14.80;;
20179;SDS011;10249;48.900;9.090;2022-09-09T14:16:38;15.50;;;14.70;;
20179;SDS011;10249;48.900;9.090;2022-09-09T14:19:05;15.33;;;14.63;;
20179;SDS011;10249;48.900;9.090;2022-09-09T14:21:32;15.67;;;14.87;;
20179;SDS011;10249;48.900;9.090;2022-09-09T14:24:01;15.70;;;14.90;;
20179;SDS011;10249;48.900;9.090;2022-09-09T14:26:28;16.27;;;15.37;;
20179;SDS011;10249;48.900;9.090;2022-09-09T14:28:55;15.75;;;15.02;;
20179;SDS011;10249;48.900;9.090;2022-09-09T14:31:22;16.10;;;15.10;;
20179;SDS011;10249;48.900;9.090;2022-09-09T14:33:50;15.53;;;14.73;;
20179;SDS011;10249;48.900;9.090;2022-09-09T14:36:17;15.60;;;14.80;;
20179;SDS011;10249;48.900;9.090;2022-09-09T14:38:44;15.87;;;15.07;;
20179;SDS011;10249;48.900;9.090;2022-09-09T14:41:13;16.70;;;15.80;;
20179;SDS011;10249;48.900;9.090;2022-09-09T14:43:42;16.70;;;15.70;;
20179;SDS011;10249;48.900;9.090;2022-09-09T14:46:10;16.20;;;15.40;;
20179;SDS011;10249;48.900;9.090;2022-09-09T14:48:37;16.40;;;15.60;;